createdAt,value
2022-09-28T00:00:51.750Z,67.03
2022-09-28T00:03:18.219Z,67.07
2022-09-28T00:05:44.695Z,67.04
2022-09-28T00:08:11.157Z,67.20
2022-09-28T00:10:37.786Z,67.30
2022-09-28T00:13:04.531Z,67.38
2022-09-28T00:15:30.984Z,67.34
2022-09-28T00:17:57.455Z,67.53
2022-09-28T00:20:23.942Z,67.46
2022-09-28T00:22:50.406Z,67.40
2022-09-28T00:25:17.036Z,67.57
2022-09-28T00:27:43.727Z,67.43
2022-09-28T00:30:10.485Z,67.34
2022-09-28T00:32:36.964Z,67.59
2022-09-28T00:35:03.629Z,67.57
2022-09-28T00:37:30.117Z,67.58
2022-09-28T00:39:56.936Z,67.62
2022-09-28T00:42:26.268Z,67.76
2022-09-28T00:44:54.567Z,67.81
2022-09-28T00:47:54.741Z,67.81
2022-09-28T00:50:30.127Z,67.83
2022-09-28T00:53:18.435Z,67.83
2022-09-28T00:56:07.556Z,67.89
2022-09-28T00:58:39.711Z,67.67
2022-09-28T01:01:06.386Z,68.02
2022-09-28T01:03:33.923Z,68.12
2022-09-28T01:06:03.664Z,68.16
2022-09-28T01:08:32.825Z,67.98
2022-09-28T01:10:59.970Z,68.16
2022-09-28T01:13:27.237Z,68.30
2022-09-28T01:16:08.035Z,68.25
2022-09-28T01:19:22.242Z,68.32
2022-09-28T01:22:19.586Z,68.39
2022-09-28T01:24:48.683Z,68.75
2022-09-28T01:27:29.905Z,68.60
2022-09-28T01:30:08.342Z,68.35
2022-09-28T01:32:38.322Z,68.36
2022-09-28T01:35:15.090Z,68.30
2022-09-28T01:37:44.322Z,68.30
2022-09-28T01:40:13.377Z,68.35
2022-09-28T01:42:44.108Z,68.26
2022-09-28T01:45:23.813Z,68.17
2022-09-28T01:47:52.113Z,68.14
2022-09-28T01:50:22.987Z,68.42
2022-09-28T01:52:56.271Z,68.42
2022-09-28T01:55:31.255Z,68.37
2022-09-28T01:58:00.560Z,68.40
2022-09-28T02:00:28.221Z,68.33
2022-09-28T02:03:06.130Z,68.55
2022-09-28T02:05:35.474Z,68.58
2022-09-28T02:08:28.418Z,68.67
2022-09-28T02:11:05.950Z,68.45
2022-09-28T02:14:07.183Z,68.47
2022-09-28T02:16:48.123Z,68.54
2022-09-28T02:19:20.762Z,68.74
2022-09-28T02:22:08.575Z,68.79
2022-09-28T02:24:45.474Z,69.00
2022-09-28T02:27:27.558Z,68.89
2022-09-28T02:29:54.066Z,68.96
2022-09-28T02:32:20.762Z,68.68
2022-09-28T02:34:47.337Z,68.92
2022-09-28T02:37:14.141Z,68.92
2022-09-28T02:39:40.686Z,68.84
2022-09-28T02:42:34.479Z,69.15
2022-09-28T02:45:29.805Z,69.12
2022-09-28T02:47:56.261Z,69.26
2022-09-28T02:50:44.041Z,69.23
2022-09-28T02:53:37.472Z,69.25
2022-09-28T02:56:41.699Z,69.26
2022-09-28T02:59:31.329Z,69.32
2022-09-28T03:02:22.692Z,69.28
2022-09-28T03:05:04.108Z,69.24
2022-09-28T03:07:57.614Z,69.44
2022-09-28T03:10:38.565Z,69.44
2022-09-28T03:13:06.190Z,69.46
2022-09-28T03:15:34.714Z,69.52
2022-09-28T03:18:01.420Z,69.50
2022-09-28T03:20:29.739Z,69.38
2022-09-28T03:23:22.898Z,69.44
2022-09-28T03:25:42.835Z,69.28
2022-09-28T03:28:09.293Z,69.22
2022-09-28T03:30:35.883Z,69.18
2022-09-28T03:33:03.159Z,69.17
2022-09-28T03:35:29.850Z,69.17
2022-09-28T03:37:57.192Z,69.28
2022-09-28T03:40:24.120Z,69.55
2022-09-28T03:42:50.653Z,69.43
2022-09-28T03:45:17.137Z,69.43
2022-09-28T03:47:47.215Z,69.50
2022-09-28T03:50:13.795Z,69.45
2022-09-28T03:52:40.393Z,69.51
2022-09-28T03:55:07.381Z,69.44
2022-09-28T03:57:33.858Z,69.60
2022-09-28T04:00:00.619Z,69.82
2022-09-28T04:02:27.146Z,69.67
2022-09-28T04:04:53.653Z,69.90
2022-09-28T04:07:20.127Z,69.79
2022-09-28T04:09:46.620Z,70.08
2022-09-28T04:12:13.118Z,70.10
2022-09-28T04:14:39.594Z,69.95
2022-09-28T04:17:07.236Z,70.22
2022-09-28T04:19:33.771Z,70.10
2022-09-28T04:22:01.703Z,70.16
2022-09-28T04:24:28.364Z,70.15
2022-09-28T04:27:14.785Z,70.32
2022-09-28T04:29:41.771Z,70.07
2022-09-28T04:32:08.330Z,70.36
2022-09-28T04:34:37.238Z,70.28
2022-09-28T04:37:05.303Z,70.53
2022-09-28T04:39:31.949Z,70.44
2022-09-28T04:41:58.502Z,70.42
2022-09-28T04:44:24.958Z,70.39
2022-09-28T04:46:51.402Z,70.45
2022-09-28T04:49:17.958Z,70.52
2022-09-28T04:51:44.564Z,70.58
2022-09-28T04:54:11.050Z,70.43
2022-09-28T04:56:37.781Z,70.59
2022-09-28T04:59:04.337Z,70.71
2022-09-28T05:01:31.311Z,70.89
2022-09-28T05:03:57.785Z,71.17
2022-09-28T05:06:27.997Z,71.18
2022-09-28T05:08:57.504Z,70.98
2022-09-28T05:11:24.175Z,71.20
2022-09-28T05:13:50.943Z,71.07
2022-09-28T05:16:17.942Z,71.16
2022-09-28T05:18:44.459Z,70.95
2022-09-28T05:21:15.791Z,71.23
2022-09-28T05:23:46.975Z,71.45
2022-09-28T05:26:14.751Z,71.35
2022-09-28T05:28:41.383Z,71.45
2022-09-28T05:31:08.008Z,71.29
2022-09-28T05:33:34.578Z,71.99
2022-09-28T05:36:01.980Z,71.69
2022-09-28T05:38:29.943Z,71.63
2022-09-28T05:40:56.954Z,71.62
2022-09-28T05:43:23.808Z,71.50
2022-09-28T05:45:54.527Z,71.69
2022-09-28T05:48:22.272Z,71.62
2022-09-28T05:50:52.617Z,71.75
2022-09-28T05:53:20.427Z,71.74
2022-09-28T05:55:47.566Z,71.66
2022-09-28T05:58:14.399Z,71.53
2022-09-28T06:00:40.863Z,71.38
2022-09-28T06:03:10.985Z,71.49
2022-09-28T06:05:39.404Z,71.49
2022-09-28T06:08:08.336Z,71.22
2022-09-28T06:10:35.302Z,71.41
2022-09-28T06:13:02.211Z,71.67
2022-09-28T06:15:30.814Z,71.48
2022-09-28T06:17:59.118Z,71.33
2022-09-28T06:20:27.463Z,71.44
2022-09-28T06:22:54.198Z,71.31
2022-09-28T06:25:22.630Z,71.53
2022-09-28T06:27:59.394Z,71.26
2022-09-28T06:30:27.640Z,71.26
2022-09-28T06:33:00.304Z,71.43
2022-09-28T06:35:30.271Z,71.33
2022-09-28T06:37:57.806Z,71.46
2022-09-28T06:40:25.005Z,71.42
2022-09-28T06:43:17.182Z,71.39
2022-09-28T06:45:44.026Z,71.65
2022-09-28T06:48:11.275Z,71.41
2022-09-28T06:50:40.405Z,71.34
2022-09-28T06:53:09.530Z,71.22
2022-09-28T06:55:39.157Z,71.15
2022-09-28T06:58:07.966Z,70.86
2022-09-28T07:00:36.251Z,70.73
2022-09-28T07:03:04.904Z,70.63
2022-09-28T07:05:34.937Z,70.45
2022-09-28T07:08:02.048Z,70.25
2022-09-28T07:10:29.707Z,69.79
2022-09-28T07:12:57.689Z,69.67
2022-09-28T07:15:25.279Z,69.51
2022-09-28T07:18:03.123Z,69.59
2022-09-28T07:20:30.858Z,69.47
2022-09-28T07:23:15.151Z,69.39
2022-09-28T07:25:50.289Z,69.07
2022-09-28T07:28:17.401Z,68.55
2022-09-28T07:30:46.857Z,68.29
2022-09-28T07:33:15.945Z,68.22
2022-09-28T07:35:50.708Z,68.14
2022-09-28T07:38:17.211Z,68.21
2022-09-28T07:41:02.110Z,68.31
2022-09-28T07:43:28.642Z,67.85
2022-09-28T07:45:55.925Z,67.44
2022-09-28T07:48:22.994Z,67.13
2022-09-28T07:50:53.509Z,67.76
2022-09-28T07:53:24.968Z,68.13
2022-09-28T07:55:53.516Z,68.02
2022-09-28T07:58:20.699Z,68.02
2022-09-28T08:00:49.062Z,68.22
2022-09-28T08:03:22.426Z,68.19
2022-09-28T08:05:49.804Z,68.40
2022-09-28T08:08:16.519Z,68.65
2022-09-28T08:10:47.027Z,68.32
2022-09-28T08:13:15.353Z,68.02
2022-09-28T08:15:42.722Z,68.46
2022-09-28T08:18:10.051Z,68.54
2022-09-28T08:20:55.211Z,68.54
2022-09-28T08:23:21.981Z,68.84
2022-09-28T08:25:52.508Z,68.98
2022-09-28T08:28:19.009Z,69.00
2022-09-28T08:30:46.816Z,69.12
2022-09-28T08:33:14.820Z,68.99
2022-09-28T08:35:42.062Z,69.25
2022-09-28T08:38:09.094Z,69.10
2022-09-28T08:40:52.278Z,68.80
2022-09-28T08:44:00.087Z,68.97
2022-09-28T08:46:31.799Z,68.64
2022-09-28T08:52:11.472Z,69.50
2022-09-28T08:54:45.211Z,68.78
2022-09-28T08:57:16.306Z,69.12
2022-09-28T08:59:55.860Z,69.41
2022-09-28T09:02:39.786Z,69.48
2022-09-28T09:05:13.823Z,69.29
2022-09-28T09:07:43.085Z,69.48
2022-09-28T09:10:21.433Z,69.25
2022-09-28T09:13:10.515Z,69.18
2022-09-28T09:16:01.091Z,69.09
2022-09-28T09:18:37.568Z,68.85
2022-09-28T09:21:15.051Z,68.53
2022-09-28T09:24:21.512Z,67.45
2022-09-28T09:26:57.343Z,68.26
2022-09-28T09:29:47.231Z,67.79
2022-09-28T09:32:21.398Z,67.88
2022-09-28T09:35:25.301Z,68.32
2022-09-28T09:38:19.371Z,67.96
2022-09-28T09:41:16.086Z,66.87
2022-09-28T09:43:55.896Z,65.93
2022-09-28T09:46:46.791Z,64.74
2022-09-28T09:49:21.798Z,64.30
2022-09-28T09:52:11.564Z,64.03
2022-09-28T09:54:45.635Z,62.75
2022-09-28T09:57:20.502Z,62.08
2022-09-28T09:59:48.562Z,62.04
2022-09-28T10:02:22.330Z,62.26
2022-09-28T10:04:52.589Z,62.68
2022-09-28T10:07:24.414Z,62.30
2022-09-28T10:09:56.298Z,62.36
2022-09-28T10:12:24.335Z,64.07
2022-09-28T10:14:50.923Z,62.55
2022-09-28T10:17:19.896Z,61.97
2022-09-28T10:19:46.535Z,61.68
2022-09-28T10:22:17.978Z,60.50
2022-09-28T10:24:47.518Z,60.53
2022-09-28T10:27:20.479Z,60.12
2022-09-28T10:29:50.073Z,59.60
2022-09-28T10:32:25.897Z,58.91
2022-09-28T10:34:54.987Z,58.80
2022-09-28T10:37:21.565Z,58.53
2022-09-28T10:39:53.775Z,58.25
2022-09-28T10:42:28.170Z,56.68
2022-09-28T10:45:07.337Z,56.17
2022-09-28T10:47:35.600Z,55.51
2022-09-28T10:50:02.914Z,55.01
2022-09-28T10:52:44.927Z,54.28
2022-09-28T10:55:32.339Z,52.82
2022-09-28T10:58:00.287Z,51.73
2022-09-28T11:00:31.580Z,51.78
2022-09-28T11:02:58.910Z,51.56
2022-09-28T11:05:27.977Z,51.45
2022-09-28T11:07:57.005Z,51.35
2022-09-28T11:10:26.567Z,52.77
2022-09-28T11:12:54.421Z,53.90
2022-09-28T11:15:25.695Z,54.94
2022-09-28T11:17:52.645Z,55.67
2022-09-28T11:20:27.833Z,54.08
2022-09-28T11:23:22.141Z,50.63
2022-09-28T11:26:04.626Z,47.28
2022-09-28T11:28:37.397Z,45.12
2022-09-28T11:31:07.274Z,45.34
2022-09-28T11:33:38.765Z,46.68
2022-09-28T11:36:12.378Z,48.51
2022-09-28T11:38:46.080Z,49.72
2022-09-28T11:41:45.778Z,49.81
2022-09-28T11:44:15.367Z,51.24
2022-09-28T11:47:25.345Z,47.83
2022-09-28T11:50:17.841Z,43.53
2022-09-28T11:53:15.850Z,42.26
2022-09-28T11:55:48.395Z,40.97
2022-09-28T11:58:24.647Z,42.82
2022-09-28T12:00:57.516Z,44.99
2022-09-28T12:03:50.696Z,47.65
2022-09-28T12:06:27.659Z,49.55
2022-09-28T12:09:06.580Z,49.92
2022-09-28T12:11:37.829Z,49.92
2022-09-28T12:14:11.005Z,48.75
2022-09-28T12:17:04.907Z,47.91
2022-09-28T12:19:42.524Z,45.91
2022-09-28T12:22:20.891Z,47.04
2022-09-28T12:24:51.340Z,48.49
2022-09-28T12:27:24.911Z,43.65
2022-09-28T12:29:54.459Z,39.31
2022-09-28T12:32:26.692Z,38.65
2022-09-28T12:34:53.231Z,37.30
2022-09-28T12:37:28.642Z,35.81
2022-09-28T12:40:30.549Z,34.74
2022-09-28T12:43:29.088Z,33.39
2022-09-28T12:46:11.967Z,33.22
2022-09-28T12:49:27.258Z,33.57
2022-09-28T12:51:54.521Z,34.33
2022-09-28T12:54:39.265Z,37.03
2022-09-28T12:57:25.970Z,38.02
2022-09-28T12:59:55.363Z,37.04
2022-09-28T13:02:48.080Z,38.04
2022-09-28T13:05:32.668Z,39.08
2022-09-28T13:08:10.041Z,37.81
2022-09-28T13:10:53.226Z,37.12
2022-09-28T13:13:22.567Z,39.30
2022-09-28T13:15:58.200Z,40.25
2022-09-28T13:18:44.655Z,41.65
2022-09-28T13:21:14.172Z,41.85
2022-09-28T13:23:44.005Z,42.19
2022-09-28T13:26:25.616Z,42.34
2022-09-28T13:28:54.784Z,42.73
2022-09-28T13:31:31.858Z,43.09
2022-09-28T13:34:02.962Z,41.44
2022-09-28T13:36:30.513Z,39.27
2022-09-28T13:38:59.429Z,35.36
2022-09-28T13:41:38.022Z,34.21
2022-09-28T13:44:13.384Z,37.58
2022-09-28T13:46:58.591Z,38.96
2022-09-28T13:49:45.502Z,39.20
2022-09-28T13:52:27.879Z,36.14
2022-09-28T13:55:09.783Z,33.88
2022-09-28T13:57:57.714Z,32.37
2022-09-28T14:00:32.377Z,31.37
2022-09-28T14:03:15.076Z,30.48
2022-09-28T14:05:47.297Z,30.12
2022-09-28T14:08:34.765Z,28.80
2022-09-28T14:11:34.366Z,27.89
2022-09-28T14:14:02.221Z,28.05
2022-09-28T14:16:33.857Z,28.33
2022-09-28T14:19:26.592Z,27.85
2022-09-28T14:22:25.098Z,28.35
2022-09-28T14:25:03.793Z,30.60
2022-09-28T14:28:01.464Z,32.73
2022-09-28T14:30:46.701Z,34.17
2022-09-28T14:33:19.414Z,34.68
2022-09-28T14:35:54.081Z,34.79
2022-09-28T14:38:44.770Z,34.83
2022-09-28T14:41:18.012Z,35.21
2022-09-28T14:43:44.471Z,35.63
2022-09-28T14:46:11.359Z,35.91
2022-09-28T14:48:48.563Z,33.12
2022-09-28T14:51:27.142Z,35.66
2022-09-28T14:53:56.434Z,35.64
2022-09-28T14:56:23.963Z,36.15
2022-09-28T14:58:56.125Z,36.30
2022-09-28T15:01:25.369Z,36.47
2022-09-28T15:03:56.614Z,35.57
2022-09-28T15:06:24.077Z,34.87
2022-09-28T15:08:50.591Z,33.46
2022-09-28T15:11:22.693Z,32.94
2022-09-28T15:13:53.314Z,33.92
2022-09-28T15:16:24.354Z,34.79
2022-09-28T15:18:56.694Z,35.80
2022-09-28T15:21:24.306Z,36.03
2022-09-28T15:23:50.858Z,35.95
2022-09-28T15:26:27.540Z,36.21
2022-09-28T15:28:54.978Z,37.30
2022-09-28T15:31:24.349Z,37.65
2022-09-28T15:34:09.577Z,37.88
2022-09-28T15:36:41.508Z,38.47
2022-09-28T15:39:44.617Z,38.88
2022-09-28T15:42:11.378Z,39.65
2022-09-28T15:44:39.514Z,39.88
2022-09-28T15:47:09.470Z,39.68
2022-09-28T15:49:53.408Z,40.11
2022-09-28T15:52:53.826Z,39.31
2022-09-28T15:55:44.722Z,38.12
2022-09-28T15:58:20.207Z,37.24
2022-09-28T16:00:49.594Z,36.57
2022-09-28T16:03:21.168Z,36.77
2022-09-28T16:05:59.677Z,36.56
2022-09-28T16:08:45.881Z,36.33
2022-09-28T16:11:15.275Z,35.99
2022-09-28T16:14:06.774Z,35.63
2022-09-28T16:16:55.270Z,35.82
2022-09-28T16:19:48.042Z,36.44
2022-09-28T16:22:25.493Z,36.53
2022-09-28T16:24:57.135Z,37.11
2022-09-28T16:27:38.990Z,37.14
2022-09-28T16:30:20.542Z,37.24
2022-09-28T16:32:52.994Z,37.65
2022-09-28T16:35:26.843Z,37.69
2022-09-28T16:38:14.796Z,38.24
2022-09-28T16:40:44.261Z,38.62
2022-09-28T16:43:27.756Z,40.85
2022-09-28T16:46:12.834Z,42.19
2022-09-28T16:48:50.665Z,41.36
2022-09-28T16:51:22.369Z,41.27
2022-09-28T16:54:07.782Z,40.65
2022-09-28T16:56:36.217Z,41.03
2022-09-28T16:59:03.447Z,40.99
2022-09-28T17:01:31.394Z,40.70
2022-09-28T17:03:58.006Z,40.54
2022-09-28T17:06:25.376Z,41.31
2022-09-28T17:08:52.460Z,44.11
2022-09-28T17:11:24.739Z,43.95
2022-09-28T17:13:53.560Z,44.20
2022-09-28T17:16:37.209Z,44.29
2022-09-28T17:19:21.468Z,44.43
2022-09-28T17:21:48.840Z,44.88
2022-09-28T17:24:15.455Z,45.03
2022-09-28T17:26:44.429Z,45.75
2022-09-28T17:29:14.683Z,45.95
2022-09-28T17:31:45.884Z,45.90
2022-09-28T17:34:16.153Z,46.18
2022-09-28T17:36:44.025Z,46.45
2022-09-28T17:39:12.591Z,46.67
2022-09-28T17:41:40.254Z,46.81
2022-09-28T17:44:07.337Z,47.45
2022-09-28T17:46:36.893Z,47.97
2022-09-28T17:49:05.757Z,48.26
2022-09-28T17:51:37.577Z,48.69
2022-09-28T17:54:06.568Z,49.09
2022-09-28T17:56:33.654Z,49.38
2022-09-28T17:59:03.286Z,49.73
2022-09-28T18:01:34.127Z,50.30
2022-09-28T18:04:02.801Z,50.38
2022-09-28T18:06:29.381Z,50.68
2022-09-28T18:08:55.902Z,50.80
2022-09-28T18:11:22.669Z,51.53
2022-09-28T18:13:49.167Z,51.22
2022-09-28T18:16:16.315Z,51.67
2022-09-28T18:18:42.877Z,52.28
2022-09-28T18:21:09.449Z,52.28
2022-09-28T18:23:39.471Z,52.14
2022-09-28T18:26:13.862Z,52.30
2022-09-28T18:28:40.833Z,52.45
2022-09-28T18:31:12.708Z,52.83
2022-09-28T18:33:39.351Z,52.96
2022-09-28T18:36:07.026Z,52.97
2022-09-28T18:38:37.363Z,53.30
2022-09-28T18:41:09.227Z,53.38
2022-09-28T18:43:36.619Z,53.80
2022-09-28T18:46:10.270Z,53.84
2022-09-28T18:48:38.448Z,53.81
2022-09-28T18:51:09.193Z,54.21
2022-09-28T18:53:36.493Z,54.38
2022-09-28T18:56:08.118Z,54.43
2022-09-28T18:58:36.491Z,54.71
2022-09-28T19:01:29.396Z,54.49
2022-09-28T19:04:00.204Z,54.85
2022-09-28T19:06:26.787Z,54.88
2022-09-28T19:08:55.718Z,54.93
2022-09-28T19:11:23.058Z,55.23
2022-09-28T19:13:50.018Z,55.49
2022-09-28T19:16:21.795Z,55.55
2022-09-28T19:18:48.885Z,55.56
2022-09-28T19:21:16.117Z,55.92
2022-09-28T19:23:49.045Z,56.01
2022-09-28T19:26:22.149Z,56.13
2022-09-28T19:28:48.970Z,56.34
2022-09-28T19:31:15.894Z,56.58
2022-09-28T19:33:42.485Z,56.41
2022-09-28T19:36:12.152Z,56.65
2022-09-28T19:38:39.597Z,56.73
2022-09-28T19:41:40.781Z,56.89
2022-09-28T19:44:10.858Z,57.27
2022-09-28T19:46:39.040Z,57.18
2022-09-28T19:49:14.354Z,57.42
2022-09-28T19:52:01.647Z,57.40
2022-09-28T19:54:36.285Z,57.41
2022-09-28T19:57:08.861Z,57.67
2022-09-28T19:59:38.751Z,57.91
2022-09-28T20:02:07.478Z,58.04
2022-09-28T20:04:34.408Z,57.97
2022-09-28T20:07:01.761Z,58.31
2022-09-28T20:09:28.390Z,58.41
2022-09-28T20:11:55.073Z,58.76
2022-09-28T20:14:23.488Z,59.38
2022-09-28T20:16:52.388Z,59.80
2022-09-28T20:19:21.513Z,60.17
2022-09-28T20:21:48.394Z,60.55
2022-09-28T20:24:17.694Z,61.29
2022-09-28T20:26:45.814Z,61.62
2022-09-28T20:29:12.893Z,61.99
2022-09-28T20:31:39.390Z,62.58
2022-09-28T20:34:06.831Z,62.82
2022-09-28T20:36:33.910Z,63.18
2022-09-28T20:39:01.907Z,63.15
2022-09-28T20:41:35.767Z,63.18
2022-09-28T20:44:05.928Z,63.43
2022-09-28T20:46:34.707Z,63.40
2022-09-28T20:49:01.713Z,63.42
2022-09-28T20:51:28.445Z,63.58
2022-09-28T20:53:56.454Z,63.56
2022-09-28T20:56:25.044Z,63.82
2022-09-28T20:58:52.104Z,63.69
2022-09-28T21:01:23.912Z,63.81
2022-09-28T21:03:53.020Z,63.94
2022-09-28T21:06:21.925Z,64.07
2022-09-28T21:08:49.598Z,64.18
2022-09-28T21:11:21.382Z,64.02
2022-09-28T21:13:48.535Z,64.24
2022-09-28T21:16:17.675Z,64.50
2022-09-28T21:18:45.109Z,64.29
2022-09-28T21:21:13.589Z,64.42
2022-09-28T21:23:40.154Z,64.48
2022-09-28T21:26:08.994Z,64.40
2022-09-28T21:28:36.451Z,64.61
2022-09-28T21:31:06.214Z,64.75
2022-09-28T21:33:33.003Z,64.73
2022-09-28T21:36:04.615Z,64.83
2022-09-28T21:38:31.332Z,64.99
2022-09-28T21:40:58.987Z,65.08
2022-09-28T21:43:27.702Z,65.28
2022-09-28T21:45:55.727Z,65.14
2022-09-28T21:48:24.467Z,65.74
2022-09-28T21:51:12.660Z,66.30
2022-09-28T21:53:39.474Z,66.18
2022-09-28T21:56:08.098Z,66.31
2022-09-28T21:58:35.674Z,66.53
2022-09-28T22:01:16.864Z,66.71
2022-09-28T22:03:45.217Z,66.76
2022-09-28T22:06:12.230Z,66.97
2022-09-28T22:08:39.569Z,67.14
2022-09-28T22:11:08.919Z,67.27
2022-09-28T22:13:44.753Z,67.17
2022-09-28T22:16:12.833Z,67.23
2022-09-28T22:18:39.892Z,67.45
2022-09-28T22:21:11.812Z,67.75
2022-09-28T22:23:38.955Z,67.77
2022-09-28T22:26:11.632Z,68.10
2022-09-28T22:28:39.161Z,68.12
2022-09-28T22:31:06.240Z,68.36
2022-09-28T22:33:32.845Z,68.25
2022-09-28T22:35:59.414Z,68.29
2022-09-28T22:38:25.944Z,68.26
2022-09-28T22:40:55.037Z,68.33
2022-09-28T22:43:26.075Z,68.42
2022-09-28T22:46:07.391Z,68.42
2022-09-28T22:48:34.771Z,68.32
2022-09-28T22:51:02.538Z,68.54
2022-09-28T22:53:29.150Z,68.69
2022-09-28T22:55:56.662Z,68.74
2022-09-28T22:58:23.714Z,68.76
2022-09-28T23:00:50.285Z,68.61
2022-09-28T23:03:17.918Z,68.63
2022-09-28T23:05:56.961Z,68.69
2022-09-28T23:08:24.309Z,68.77
2022-09-28T23:10:51.193Z,68.96
2022-09-28T23:13:18.385Z,69.03
2022-09-28T23:15:58.200Z,69.23
2022-09-28T23:18:27.061Z,69.35
2022-09-28T23:20:55.334Z,69.33
2022-09-28T23:23:22.581Z,69.09
2022-09-28T23:25:49.545Z,69.18
2022-09-28T23:28:16.797Z,69.60
2022-09-28T23:30:43.375Z,69.66
2022-09-28T23:33:14.356Z,69.92
2022-09-28T23:35:41.350Z,69.62
2022-09-28T23:38:11.930Z,69.65
2022-09-28T23:40:38.535Z,69.77
2022-09-28T23:43:05.104Z,69.64
2022-09-28T23:45:31.954Z,69.64
2022-09-28T23:47:58.434Z,69.65
2022-09-28T23:50:25.297Z,69.56
2022-09-28T23:52:51.881Z,69.52
2022-09-28T23:55:19.132Z,69.58
2022-09-28T23:57:46.351Z,69.66
